Time;durP1;ratioP1;P1;durP2;ratioP2;P2;SDS_P1;SDS_P2;PMS_P1;PMS_P2;Temp;Humidity;BMP_temperature;BMP_pressure;BME280_temperature;BME280_humidity;BME280_pressure;Samples;Min_cycle;Max_cycle;Signal;HPM_P1;HPM_P2
2020/12/04 00:01:07;;;;;;;9.97;7.40;;;;;;;2.51;85.99;98629.06;4882121;29;20277;-72
2020/12/04 00:03:35;;;;;;;11.23;7.13;;;;;;;2.57;85.37;98619.97;4881657;29;20220;-71
2020/12/04 00:06:01;;;;;;;10.60;7.57;;;;;;;2.37;85.52;98614.63;4866255;29;20233;-73
2020/12/04 00:08:26;;;;;;;10.37;7.60;;;;;;;2.51;85.45;98613.00;4866502;29;20202;-72
2020/12/04 00:10:52;;;;;;;11.60;8.20;;;;;;;2.53;85.04;98608.19;4881676;29;20918;-71
2020/12/04 00:13:20;;;;;;;10.63;7.67;;;;;;;2.38;84.72;98613.56;4882487;29;20181;-72
2020/12/04 00:15:45;;;;;;;10.40;8.17;;;;;;;2.31;85.53;98613.03;4850113;29;20623;-72
2020/12/04 00:18:11;;;;;;;9.83;7.23;;;;;;;2.39;85.62;98607.13;4863614;29;20565;-72
2020/12/04 00:20:37;;;;;;;10.20;7.83;;;;;;;2.39;85.65;98604.47;4862833;29;20293;-72
2020/12/04 00:23:02;;;;;;;10.83;7.40;;;;;;;2.40;85.30;98606.06;4863528;29;20194;-72
2020/12/04 00:25:28;;;;;;;10.57;7.63;;;;;;;2.31;85.19;98605.00;4877318;29;20229;-73
2020/12/04 00:27:53;;;;;;;12.63;7.53;;;;;;;2.36;85.52;98594.28;4863324;29;20186;-73
2020/12/04 00:30:19;;;;;;;10.40;7.37;;;;;;;2.40;84.70;98596.16;4847202;29;20224;-72
2020/12/04 00:32:45;;;;;;;11.03;7.73;;;;;;;2.27;84.75;98601.25;4848018;29;20193;-72
2020/12/04 00:35:10;;;;;;;10.40;7.90;;;;;;;2.27;84.60;98593.22;4846912;29;20221;-73
2020/12/04 00:37:36;;;;;;;11.47;8.07;;;;;;;2.20;85.14;98579.31;4878841;29;20667;-72
2020/12/04 00:40:02;;;;;;;9.43;7.33;;;;;;;2.20;84.88;98571.28;4863272;29;20262;-71
2020/12/04 00:42:28;;;;;;;10.93;7.67;;;;;;;2.21;85.28;98570.22;4862769;29;20313;-72
2020/12/04 00:44:56;;;;;;;12.43;7.00;;;;;;;2.11;84.73;98561.41;4846955;29;20229;-72
2020/12/04 00:47:22;;;;;;;10.20;7.57;;;;;;;2.19;85.07;98550.94;4864002;29;20221;-72
2020/12/04 00:49:52;;;;;;;11.73;8.07;;;;;;;2.21;85.44;98559.50;4897271;29;20205;-72
2020/12/04 00:52:18;;;;;;;9.80;7.10;;;;;;;2.17;85.23;98568.34;4866118;29;20260;-72
2020/12/04 00:54:45;;;;;;;10.13;7.53;;;;;;;2.04;85.17;98567.00;4864403;29;20217;-71
2020/12/04 00:57:12;;;;;;;11.67;7.97;;;;;;;1.93;85.00;98570.75;4875550;29;20312;-71
2020/12/04 00:59:45;;;;;;;12.27;7.47;;;;;;;1.90;85.46;98572.38;4862870;29;20304;-72
2020/12/04 01:02:13;;;;;;;11.63;8.13;;;;;;;1.77;85.81;98572.91;4862816;29;20225;-71
2020/12/04 01:04:42;;;;;;;11.10;8.00;;;;;;;1.65;85.64;98564.34;4861815;29;20210;-72
2020/12/04 01:07:10;;;;;;;10.33;7.77;;;;;;;1.73;86.46;98561.16;4877778;29;20230;-71
2020/12/04 01:09:35;;;;;;;11.43;7.63;;;;;;;1.74;86.35;98558.22;4847384;29;20203;-72
2020/12/04 01:12:01;;;;;;;10.57;7.80;;;;;;;1.73;86.48;98555.78;4861827;29;20238;-71
2020/12/04 01:14:27;;;;;;;10.80;7.57;;;;;;;1.72;86.67;98548.81;4885618;29;20224;-71
2020/12/04 01:16:55;;;;;;;11.23;7.97;;;;;;;1.71;86.30;98544.56;4864573;29;20725;-72
2020/12/04 01:19:21;;;;;;;12.07;7.57;;;;;;;1.66;86.48;98544.56;4881139;29;20193;-73
2020/12/04 01:21:47;;;;;;;12.27;7.83;;;;;;;1.61;86.63;98547.22;4880203;29;20822;-72
2020/12/04 01:24:15;;;;;;;11.03;7.90;;;;;;;1.55;87.28;98545.63;4894053;29;20213;-72
2020/12/04 01:26:41;;;;;;;11.63;7.93;;;;;;;1.53;86.89;98537.84;4864471;29;20230;-71
2020/12/04 01:29:07;;;;;;;12.43;8.93;;;;;;;1.63;86.58;98535.19;4843903;29;20181;-72
2020/12/04 01:31:32;;;;;;;12.27;8.57;;;;;;;1.66;85.87;98531.97;4846391;29;20236;-72
2020/12/04 01:34:01;;;;;;;13.90;8.90;;;;;;;1.57;86.04;98519.41;4880200;29;20221;-71
2020/12/04 01:36:30;;;;;;;12.80;8.43;;;;;;;1.64;85.96;98530.66;4864268;29;20726;-71
2020/12/04 01:39:02;;;;;;;11.37;7.80;;;;;;;1.59;85.97;98527.97;4879536;29;20666;-72
2020/12/04 01:41:32;;;;;;;11.90;8.43;;;;;;;1.59;85.70;98527.97;4846400;29;20320;-71
2020/12/04 01:43:57;;;;;;;11.27;7.93;;;;;;;1.55;86.50;98521.53;4881463;29;20212;-71
2020/12/04 01:46:26;;;;;;;11.53;8.17;;;;;;;1.63;86.24;98505.78;4863390;29;20228;-71
2020/12/04 01:48:56;;;;;;;13.80;8.77;;;;;;;1.58;86.40;98510.31;4881001;29;20244;-71
2020/12/04 01:51:22;;;;;;;12.60;8.60;;;;;;;1.55;86.42;98500.94;4864477;29;20228;-72
2020/12/04 01:53:51;;;;;;;12.10;8.23;;;;;;;1.63;86.26;98496.94;4864127;29;20219;-72
2020/12/04 01:56:17;;;;;;;13.17;8.90;;;;;;;1.47;86.88;98503.38;4879774;29;20220;-72
2020/12/04 01:58:42;;;;;;;14.13;9.30;;;;;;;1.59;85.79;98494.03;4879974;29;20248;-72
2020/12/04 02:01:14;;;;;;;13.57;9.23;;;;;;;1.75;85.17;98490.25;4880087;29;20310;-72
2020/12/04 02:03:41;;;;;;;13.43;9.30;;;;;;;1.73;85.08;98491.59;4865369;29;20729;-71
2020/12/04 02:06:12;;;;;;;12.63;9.27;;;;;;;1.79;84.71;98485.97;4879852;29;20229;-72
2020/12/04 02:08:47;;;;;;;13.53;9.40;;;;;;;1.85;84.29;98474.22;4866057;29;20200;-73
2020/12/04 02:11:18;;;;;;;12.67;8.53;;;;;;;1.78;84.28;98476.34;4862943;29;20232;-72
2020/12/04 02:13:47;;;;;;;13.10;9.10;;;;;;;1.71;84.43;98469.66;4879962;29;20260;-73
2020/12/04 02:16:16;;;;;;;12.80;8.97;;;;;;;1.80;85.18;98470.72;4861796;29;20301;-72
2020/12/04 02:18:41;;;;;;;15.03;9.60;;;;;;;1.78;84.67;98467.53;4880081;29;20208;-71
2020/12/04 02:21:10;;;;;;;14.57;9.83;;;;;;;1.81;84.33;98462.41;4895286;29;20228;-71
2020/12/04 02:23:35;;;;;;;13.97;9.47;;;;;;;1.94;83.15;98451.16;4874877;29;20256;-71
2020/12/04 02:26:01;;;;;;;13.50;9.80;;;;;;;1.96;83.03;98439.13;4883883;29;20308;-71
2020/12/04 02:28:37;;;;;;;16.07;10.13;;;;;;;1.91;83.34;98445.56;4830888;29;20189;-73
2020/12/04 02:31:06;;;;;;;15.30;10.00;;;;;;;1.86;83.50;98445.56;4823043;29;20237;-72
2020/12/04 02:33:37;;;;;;;15.57;9.40;;;;;;;1.69;83.25;98448.53;4842283;29;20723;-71
2020/12/04 02:36:03;;;;;;;16.47;10.40;;;;;;;1.74;83.94;98442.38;4849615;29;20229;-71
2020/12/04 02:38:29;;;;;;;15.50;10.83;;;;;;;1.66;83.38;98433.00;4861033;29;20177;-72
2020/12/04 02:40:55;;;;;;;13.97;9.77;;;;;;;1.78;83.79;98443.44;4845172;29;20237;-72
2020/12/04 02:43:20;;;;;;;15.53;10.60;;;;;;;1.66;84.32;98433.00;4861096;29;20202;-72
2020/12/04 02:45:48;;;;;;;15.37;10.73;;;;;;;1.77;83.60;98426.56;4846898;29;20229;-72
2020/12/04 02:48:14;;;;;;;16.17;10.70;;;;;;;1.86;83.28;98421.50;4865872;29;20231;-72
2020/12/04 02:50:40;;;;;;;14.87;10.77;;;;;;;1.87;82.61;98431.09;4862995;29;20260;-71
2020/12/04 02:53:06;;;;;;;16.30;10.40;;;;;;;1.91;82.32;98424.16;4863408;29;20197;-71
2020/12/04 02:55:34;;;;;;;15.30;10.43;;;;;;;1.92;82.74;98411.31;4890238;29;20225;-72
2020/12/04 02:58:00;;;;;;;17.47;11.23;;;;;;;1.84;83.11;98412.94;4860692;29;20242;-71
2020/12/04 03:00:25;;;;;;;17.87;11.50;;;;;;;1.79;82.71;98421.75;4857565;29;20189;-71
2020/12/04 03:02:51;;;;;;;16.60;11.43;;;;;;;1.67;83.01;98415.13;4873128;29;20535;-72
2020/12/04 03:05:19;;;;;;;19.07;12.47;;;;;;;1.68;83.46;98408.69;4841297;29;20202;-72
2020/12/04 03:07:45;;;;;;;19.07;12.37;;;;;;;1.71;82.97;98405.47;4841862;29;20190;-73
2020/12/04 03:10:10;;;;;;;18.97;11.97;;;;;;;1.54;83.71;98413.00;4841281;29;20221;-69
2020/12/04 03:12:40;;;;;;;16.83;10.97;;;;;;;1.57;83.64;98407.09;4857606;29;20190;-71
2020/12/04 03:15:06;;;;;;;19.53;12.30;;;;;;;1.60;84.09;98395.88;4854033;29;20292;-72
2020/12/04 03:17:34;;;;;;;17.33;11.40;;;;;;;1.57;84.36;98399.88;4860184;29;20296;-72
2020/12/04 03:20:02;;;;;;;19.03;12.27;;;;;;;1.37;84.29;98396.41;4860471;29;20674;-72
2020/12/04 03:22:27;;;;;;;18.10;11.97;;;;;;;1.50;84.14;98387.84;4876199;29;20309;-72
2020/12/04 03:24:53;;;;;;;18.87;12.00;;;;;;;1.33;84.58;98395.34;4867469;29;20711;-71
2020/12/04 03:27:22;;;;;;;19.27;12.30;;;;;;;1.42;84.99;98393.75;4860058;29;20222;-71
2020/12/04 03:29:48;;;;;;;18.40;12.43;;;;;;;1.39;84.67;98383.63;4889950;29;20719;-72
2020/12/04 03:32:14;;;;;;;20.77;12.23;;;;;;;1.44;85.00;98388.13;4847918;29;20260;-71
2020/12/04 03:34:45;;;;;;;20.03;12.27;;;;;;;1.56;84.77;98384.13;4863118;29;20528;-71
2020/12/04 03:37:15;;;;;;;20.80;12.37;;;;;;;1.63;84.16;98374.75;4867697;29;20231;-71
2020/12/04 03:39:45;;;;;;;19.37;12.70;;;;;;;1.48;84.15;98379.28;4845227;29;20201;-71
2020/12/04 03:42:16;;;;;;;19.43;13.17;;;;;;;1.54;84.66;98378.25;4844372;29;20727;-71
2020/12/04 03:44:41;;;;;;;17.57;11.47;;;;;;;1.66;84.52;98379.53;4868758;29;20221;-72
2020/12/04 03:47:07;;;;;;;19.90;13.10;;;;;;;1.69;84.24;98375.53;4869723;29;20274;-72
2020/12/04 03:49:35;;;;;;;20.10;13.03;;;;;;;1.81;83.89;98378.69;4826699;29;20186;-71
2020/12/04 03:52:00;;;;;;;19.50;13.33;;;;;;;1.83;84.01;98380.00;4841146;29;20241;-71
2020/12/04 03:54:26;;;;;;;20.33;13.33;;;;;;;1.77;84.36;98374.97;4854649;29;20208;-71
2020/12/04 03:56:52;;;;;;;19.00;12.80;;;;;;;1.82;84.69;98366.94;4864086;29;20221;-71
2020/12/04 03:59:17;;;;;;;20.13;13.33;;;;;;;1.83;84.81;98358.63;4844803;29;20186;-71
2020/12/04 04:01:43;;;;;;;20.07;13.20;;;;;;;1.80;84.85;98366.41;4844105;29;20744;-71
2020/12/04 04:04:11;;;;;;;19.77;13.27;;;;;;;1.71;85.41;98360.81;4828608;29;20585;-71
2020/12/04 04:06:37;;;;;;;18.90;13.30;;;;;;;1.74;85.92;98367.47;4817377;29;20230;-71
2020/12/04 04:09:05;;;;;;;19.97;13.03;;;;;;;1.74;85.64;98354.09;4832670;29;20193;-71
2020/12/04 04:11:30;;;;;;;20.27;12.97;;;;;;;1.80;85.63;98342.34;4865185;29;20229;-71
2020/12/04 04:13:56;;;;;;;21.90;13.40;;;;;;;1.64;86.47;98349.59;4855720;29;20231;-71
2020/12/04 04:16:21;;;;;;;19.47;12.87;;;;;;;1.69;87.02;98351.47;4867435;29;20233;-70
2020/12/04 04:18:49;;;;;;;20.27;13.13;;;;;;;1.88;86.37;98339.88;4829578;29;20193;-71
2020/12/04 04:21:17;;;;;;;21.83;13.20;;;;;;;1.73;86.74;98347.16;4829196;29;20233;-72
2020/12/04 04:23:42;;;;;;;21.77;13.33;;;;;;;1.71;87.82;98343.97;4858150;29;20212;-71
2020/12/04 04:26:10;;;;;;;19.47;13.67;;;;;;;1.71;87.83;98338.63;4877486;29;20232;-71
2020/12/04 04:28:36;;;;;;;21.90;14.03;;;;;;;1.83;88.08;98331.06;4877955;29;20735;-71
2020/12/04 04:31:02;;;;;;;21.27;13.87;;;;;;;1.86;88.38;98325.97;4858935;29;20240;-72
2020/12/04 04:33:27;;;;;;;22.67;13.77;;;;;;;1.75;88.50;98328.97;4877962;29;20188;-72
2020/12/04 04:35:55;;;;;;;21.97;14.13;;;;;;;1.82;89.58;98318.78;4873684;29;20609;-72
2020/12/04 04:38:29;;;;;;;21.17;13.60;;;;;;;1.83;88.23;98321.16;4863473;29;20201;-71
2020/12/04 04:40:57;;;;;;;18.77;13.33;;;;;;;1.73;89.68;98317.75;4880746;29;20271;-71
2020/12/04 04:43:22;;;;;;;21.37;13.23;;;;;;;1.70;90.68;98313.72;4870957;29;20197;-72
2020/12/04 04:45:48;;;;;;;22.20;14.10;;;;;;;1.77;90.64;98310.75;4881681;29;20726;-71
2020/12/04 04:48:29;;;;;;;22.43;13.83;;;;;;;1.84;89.49;98306.72;4860993;29;20250;-71
2020/12/04 04:50:58;;;;;;;20.10;13.33;;;;;;;1.85;89.99;98296.81;4876830;29;20680;-72
2020/12/04 04:53:24;;;;;;;23.43;14.60;;;;;;;1.80;90.88;98288.84;4862932;29;20291;-71
2020/12/04 04:55:51;;;;;;;21.63;13.67;;;;;;;1.68;90.88;98296.34;4895104;29;20285;-70
2020/12/04 04:58:19;;;;;;;21.93;13.70;;;;;;;1.66;91.53;98290.47;4865354;29;20189;-68
2020/12/04 05:00:45;;;;;;;18.83;13.30;;;;;;;1.65;90.74;98292.38;4862244;29;20232;-70
2020/12/04 05:03:11;;;;;;;22.37;14.63;;;;;;;1.64;91.78;98296.09;4880503;29;20201;-70
2020/12/04 05:05:43;;;;;;;20.27;13.63;;;;;;;1.68;91.78;98301.69;4879442;29;20228;-70
2020/12/04 05:08:12;;;;;;;22.83;14.20;;;;;;;1.63;92.55;98294.50;4865114;29;20228;-70
2020/12/04 05:10:38;;;;;;;20.90;13.23;;;;;;;1.72;91.98;98292.06;4880232;29;20221;-70
2020/12/04 05:13:08;;;;;;;22.73;14.00;;;;;;;1.75;92.38;98305.69;4880539;29;20189;-70
2020/12/04 05:15:33;;;;;;;21.73;13.30;;;;;;;1.65;92.52;98286.22;4879690;29;20235;-69
2020/12/04 05:18:03;;;;;;;22.40;14.00;;;;;;;1.65;93.35;98296.91;4880667;29;20185;-70
2020/12/04 05:20:29;;;;;;;21.83;13.93;;;;;;;1.67;93.48;98300.13;4880591;29;20221;-70
2020/12/04 05:22:55;;;;;;;23.47;14.53;;;;;;;1.77;93.69;98294.72;4866083;29;20552;-71
2020/12/04 05:25:21;;;;;;;24.37;14.33;;;;;;;1.85;93.38;98296.81;4856014;29;20703;-70
2020/12/04 05:27:49;;;;;;;22.13;13.90;;;;;;;1.76;93.40;98293.09;4880723;29;20186;-70
2020/12/04 05:30:27;;;;;;;21.37;13.23;;;;;;;1.81;93.98;98295.78;4847151;29;20236;-71
2020/12/04 05:33:03;;;;;;;21.53;14.57;;;;;;;1.78;93.80;98296.34;4831685;29;20193;-70
2020/12/04 05:35:29;;;;;;;21.13;13.93;;;;;;;1.74;94.76;98287.22;4830602;29;20631;-71
2020/12/04 05:38:14;;;;;;;24.87;14.90;;;;;;;1.63;94.66;98288.34;4847243;29;20193;-70
2020/12/04 05:40:50;;;;;;;23.93;14.07;;;;;;;1.60;94.94;98291.56;4872428;29;20336;-71
2020/12/04 05:43:38;;;;;;;21.50;13.10;;;;;;;1.63;95.63;98283.81;4885483;29;20189;-70
2020/12/04 05:46:19;;;;;;;21.53;13.97;;;;;;;1.70;95.38;98289.66;4848486;29;20256;-70
2020/12/04 05:48:57;;;;;;;23.60;14.63;;;;;;;1.77;95.58;98289.38;4865323;29;20719;-70
2020/12/04 05:51:24;;;;;;;23.23;14.50;;;;;;;1.83;96.01;98282.91;4864688;29;20233;-70
2020/12/04 05:53:53;;;;;;;24.40;15.13;;;;;;;1.78;95.64;98282.97;4861306;29;20216;-70
2020/12/04 05:56:19;;;;;;;23.70;14.80;;;;;;;1.79;95.78;98276.53;4870576;29;20256;-70
2020/12/04 05:58:48;;;;;;;24.03;15.03;;;;;;;1.79;95.96;98273.84;4849864;29;20197;-70
2020/12/04 06:01:16;;;;;;;24.13;15.10;;;;;;;1.80;96.08;98273.56;4864609;29;20233;-70
2020/12/04 06:03:43;;;;;;;24.13;15.00;;;;;;;1.84;96.22;98279.19;4879504;29;20205;-71
2020/12/04 06:06:08;;;;;;;24.17;15.07;;;;;;;1.90;96.52;98276.19;4879799;29;20233;-70
2020/12/04 06:08:43;;;;;;;24.57;15.47;;;;;;;1.96;96.17;98267.09;4849454;29;20201;-70
2020/12/04 06:11:08;;;;;;;23.50;14.90;;;;;;;1.87;96.52;98268.72;4895994;29;20323;-70
2020/12/04 06:13:39;;;;;;;26.50;15.57;;;;;;;1.93;96.74;98265.75;4849609;29;20228;-71
2020/12/04 06:16:13;;;;;;;25.20;15.27;;;;;;;1.84;97.12;98273.81;4885195;29;20225;-70
2020/12/04 06:18:42;;;;;;;27.50;16.07;;;;;;;1.90;97.51;98267.38;4865961;29;20631;-72
2020/12/04 06:21:07;;;;;;;92.13;58.77;;;;;;;1.94;97.33;98272.72;4880497;29;20235;-71
2020/12/04 06:23:34;;;;;;;28.57;16.77;;;;;;;1.97;97.18;98274.81;4880039;29;20213;-71
2020/12/04 06:26:05;;;;;;;27.17;17.30;;;;;;;1.99;97.47;98282.56;4856901;29;20603;-71
2020/12/04 06:28:38;;;;;;;25.70;15.93;;;;;;;1.94;97.34;98272.72;4831964;29;20212;-70
2020/12/04 06:31:05;;;;;;;26.80;16.37;;;;;;;1.94;97.03;98278.06;4822341;29;20234;-71
2020/12/04 06:33:37;;;;;;;24.97;16.30;;;;;;;2.01;97.53;98289.25;4812637;29;20281;-71
2020/12/04 06:36:04;;;;;;;30.80;18.60;;;;;;;1.97;97.62;98279.38;4834092;29;20721;-70
2020/12/04 06:38:35;;;;;;;26.67;16.87;;;;;;;2.03;97.92;98283.63;4861355;29;20190;-71
2020/12/04 06:41:23;;;;;;;27.40;16.87;;;;;;;2.05;97.27;98293.00;4845172;29;20792;-71
2020/12/04 06:43:51;;;;;;;28.87;16.93;;;;;;;1.99;98.04;98288.72;4863378;29;20633;-71
2020/12/04 06:46:29;;;;;;;29.53;18.17;;;;;;;1.90;98.35;98292.25;4884484;29;20243;-71
2020/12/04 06:49:23;;;;;;;28.77;16.43;;;;;;;2.00;98.33;98301.03;4830633;29;20272;-70
2020/12/04 06:52:23;;;;;;;25.70;15.97;;;;;;;2.02;97.91;98298.88;4880710;29;20268;-71
2020/12/04 06:54:49;;;;;;;29.90;16.80;;;;;;;2.13;97.96;98299.63;4831755;29;20229;-71
2020/12/04 06:57:21;;;;;;;27.73;16.73;;;;;;;2.11;97.60;98291.88;4844636;29;20234;-71
2020/12/04 06:59:47;;;;;;;26.07;16.90;;;;;;;2.10;98.02;98289.47;4860522;29;20611;-70
2020/12/04 07:02:20;;;;;;;26.80;16.43;;;;;;;2.08;98.02;98287.06;4860236;29;20240;-71
2020/12/04 07:04:52;;;;;;;30.97;17.63;;;;;;;2.10;97.73;98292.94;4875760;29;20261;-70
2020/12/04 07:07:28;;;;;;;27.13;16.83;;;;;;;1.98;97.96;98292.47;4859657;29;20240;-71
2020/12/04 07:10:03;;;;;;;27.50;16.97;;;;;;;2.05;98.06;98287.63;4860992;29;20185;-71
2020/12/04 07:12:34;;;;;;;32.20;17.60;;;;;;;2.02;98.56;98288.19;4875731;29;20304;-71
2020/12/04 07:15:00;;;;;;;30.03;17.20;;;;;;;2.13;98.32;98280.91;4860161;29;20241;-71
2020/12/04 07:17:32;;;;;;;33.73;18.67;;;;;;;2.02;98.18;98293.53;4875464;29;20281;-71
2020/12/04 07:19:59;;;;;;;28.10;16.00;;;;;;;2.05;98.56;98298.34;4845300;29;20185;-72
2020/12/04 07:22:29;;;;;;;28.90;17.97;;;;;;;2.08;98.50;98300.44;4845012;29;20315;-70
2020/12/04 07:24:57;;;;;;;28.83;17.37;;;;;;;2.06;98.82;98307.16;4877149;29;20220;-70
2020/12/04 07:27:27;;;;;;;28.73;17.23;;;;;;;2.09;97.91;98291.34;4813506;29;20234;-72
2020/12/04 07:29:58;;;;;;;29.63;17.07;;;;;;;2.09;98.45;98294.03;4829094;29;20209;-71
2020/12/04 07:32:28;;;;;;;30.57;18.33;;;;;;;2.14;98.33;98304.69;4842042;29;20241;-71
2020/12/04 07:34:54;;;;;;;29.20;18.33;;;;;;;2.18;97.69;98313.78;4811583;29;20206;-71
2020/12/04 07:37:19;;;;;;;28.67;18.10;;;;;;;2.28;97.79;98305.69;4841500;29;20262;-71
2020/12/04 07:39:45;;;;;;;29.07;18.17;;;;;;;2.28;97.85;98312.94;4826917;29;20664;-72
2020/12/04 07:42:12;;;;;;;31.03;18.43;;;;;;;2.26;98.00;98310.53;4828695;29;20249;-72
2020/12/04 07:44:42;;;;;;;30.77;17.73;;;;;;;2.21;98.08;98318.56;4844464;29;20680;-71
2020/12/04 07:47:11;;;;;;;28.13;17.47;;;;;;;2.28;97.73;98311.03;4844575;29;20229;-71
2020/12/04 07:49:48;;;;;;;29.67;18.50;;;;;;;2.40;97.32;98311.50;4830677;29;20196;-71
2020/12/04 07:52:21;;;;;;;28.47;17.50;;;;;;;2.34;97.11;98320.66;4829704;29;20244;-71
2020/12/04 07:54:48;;;;;;;28.23;16.70;;;;;;;2.33;97.40;98321.75;4876444;29;20205;-71
2020/12/04 07:57:14;;;;;;;29.13;18.43;;;;;;;2.45;97.18;98320.31;4829229;29;20225;-72
2020/12/04 07:59:43;;;;;;;28.83;17.67;;;;;;;2.41;96.83;98329.97;4859971;29;20201;-72
2020/12/04 08:02:11;;;;;;;26.60;16.90;;;;;;;2.49;97.18;98332.09;4844092;29;20229;-72
2020/12/04 08:04:40;;;;;;;30.30;18.40;;;;;;;2.42;97.30;98336.16;4860211;29;20705;-72
2020/12/04 08:07:06;;;;;;;28.00;16.97;;;;;;;2.33;97.35;98332.44;4844554;29;20721;-72
2020/12/04 08:09:33;;;;;;;29.10;17.37;;;;;;;2.36;97.41;98331.88;4879484;29;20185;-71
2020/12/04 08:11:59;;;;;;;27.30;16.90;;;;;;;2.45;97.62;98331.00;4866416;29;20228;-69
2020/12/04 08:14:26;;;;;;;27.10;17.97;;;;;;;2.53;97.05;98324.31;4851285;29;20212;-72
2020/12/04 08:16:59;;;;;;;27.80;17.30;;;;;;;2.59;96.54;98333.91;4897294;29;20225;-72
2020/12/04 08:19:26;;;;;;;27.37;16.87;;;;;;;2.56;96.28;98337.91;4850920;29;20738;-71
2020/12/04 08:22:12;;;;;;;28.33;17.23;;;;;;;2.65;96.61;98335.44;4866736;29;20236;-72
2020/12/04 08:25:01;;;;;;;27.20;16.33;;;;;;;2.62;96.39;98327.97;4881648;29;20244;-71
2020/12/04 08:27:29;;;;;;;30.10;17.53;;;;;;;2.68;96.09;98335.69;4869626;29;20232;-72
2020/12/04 08:30:14;;;;;;;24.67;16.20;;;;;;;2.75;96.14;98346.91;4850989;29;20213;-71
2020/12/04 08:32:40;;;;;;;25.23;14.50;;;;;;;2.58;96.19;98332.28;4897696;29;20648;-71
2020/12/04 08:35:18;;;;;;;24.77;15.17;;;;;;;2.70;96.04;98346.94;4865986;29;20579;-71
2020/12/04 08:37:47;;;;;;;30.23;16.33;;;;;;;2.65;96.18;98351.53;4851284;29;20181;-71
2020/12/04 08:40:26;;;;;;;26.80;16.53;;;;;;;2.78;96.46;98344.47;4850815;29;20216;-72
2020/12/04 08:42:52;;;;;;;26.43;16.00;;;;;;;2.75;96.58;98353.06;4866252;29;20243;-72
2020/12/04 08:45:26;;;;;;;25.37;16.30;;;;;;;2.87;96.04;98350.81;4864759;29;20213;-73
2020/12/04 08:47:52;;;;;;;25.33;14.83;;;;;;;2.94;95.84;98355.88;4851667;29;20302;-71
2020/12/04 08:50:21;;;;;;;23.60;15.17;;;;;;;2.90;95.63;98355.63;4850707;29;20224;-71
2020/12/04 08:52:49;;;;;;;27.23;15.87;;;;;;;2.93;95.79;98365.81;4882605;29;20580;-72
2020/12/04 08:55:19;;;;;;;23.73;15.33;;;;;;;2.94;95.70;98359.34;4864838;29;20941;-71
2020/12/04 08:57:47;;;;;;;23.90;14.67;;;;;;;2.98;95.61;98355.03;4881722;29;20373;-72
2020/12/04 09:00:14;;;;;;;23.40;15.03;;;;;;;2.88;95.42;98352.44;4880098;29;20181;-71
2020/12/04 09:02:42;;;;;;;24.70;15.87;;;;;;;2.88;95.50;98360.47;4862858;29;20224;-72
2020/12/04 09:05:17;;;;;;;23.37;14.53;;;;;;;3.03;95.45;98352.31;4877479;29;20220;-72
2020/12/04 09:07:43;;;;;;;24.00;15.50;;;;;;;3.02;94.87;98364.09;4848308;29;20232;-72
2020/12/04 09:10:16;;;;;;;22.80;14.97;;;;;;;3.05;95.14;98352.81;4878805;29;20249;-71
2020/12/04 09:12:42;;;;;;;24.50;14.27;;;;;;;2.94;95.21;98353.97;4878454;29;20209;-71
2020/12/04 09:15:12;;;;;;;22.67;14.70;;;;;;;2.93;95.82;98363.13;4846565;29;20683;-72
2020/12/04 09:17:42;;;;;;;21.87;14.53;;;;;;;3.04;95.72;98366.50;4877968;29;20611;-72
2020/12/04 09:20:11;;;;;;;23.27;14.00;;;;;;;3.09;95.29;98353.88;4877631;29;20178;-71
2020/12/04 09:22:40;;;;;;;22.07;14.73;;;;;;;3.11;95.29;98373.16;4861911;29;20256;-72
2020/12/04 09:25:08;;;;;;;22.17;13.87;;;;;;;3.11;95.49;98363.25;4862887;29;20229;-71
2020/12/04 09:27:34;;;;;;;23.27;13.67;;;;;;;3.12;95.43;98369.41;4847388;29;20221;-72
2020/12/04 09:29:59;;;;;;;22.23;13.93;;;;;;;3.07;94.97;98374.78;4862290;29;20197;-72
2020/12/04 09:32:25;;;;;;;23.50;14.57;;;;;;;3.11;95.42;98375.81;4831029;29;20233;-72
2020/12/04 09:34:53;;;;;;;21.60;13.87;;;;;;;3.18;95.02;98379.00;4859032;29;20722;-71
2020/12/04 09:37:24;;;;;;;22.00;13.80;;;;;;;3.19;95.04;98383.28;4878449;29;20229;-73
2020/12/04 09:39:54;;;;;;;19.03;12.83;;;;;;;3.25;94.01;98374.13;4865309;29;20186;-72
2020/12/04 09:42:20;;;;;;;22.50;13.40;;;;;;;3.29;93.68;98383.19;4879714;29;20342;-72
2020/12/04 09:44:46;;;;;;;23.90;14.17;;;;;;;3.30;94.06;98390.97;4864706;29;20691;-72
2020/12/04 09:47:12;;;;;;;19.30;12.63;;;;;;;3.39;94.39;98397.31;4880016;29;20616;-71
2020/12/04 09:49:38;;;;;;;18.67;13.13;;;;;;;3.50;93.75;98383.53;4850014;29;20190;-71
2020/12/04 09:52:08;;;;;;;20.67;12.93;;;;;;;3.42;94.00;98396.75;4879850;29;20736;-71
2020/12/04 09:54:36;;;;;;;19.07;11.77;;;;;;;3.47;94.04;98384.09;4864553;29;20228;-71
2020/12/04 09:57:06;;;;;;;21.57;13.93;;;;;;;3.39;93.98;98383.09;4849375;29;20228;-73
2020/12/04 09:59:34;;;;;;;20.63;13.57;;;;;;;3.33;94.28;98386.91;4864598;29;20189;-71
2020/12/04 10:02:00;;;;;;;18.93;13.07;;;;;;;3.35;94.49;98374.84;4834817;29;20239;-71
2020/12/04 10:04:25;;;;;;;20.57;12.20;;;;;;;3.39;94.05;98380.41;4846418;29;20257;-71
2020/12/04 10:06:52;;;;;;;19.00;12.17;;;;;;;3.48;94.30;98379.53;4890886;29;20233;-70
2020/12/04 10:09:18;;;;;;;20.03;13.33;;;;;;;3.60;93.41;98372.69;4865399;29;20193;-71
2020/12/04 10:11:48;;;;;;;20.20;13.07;;;;;;;3.60;92.89;98356.59;4850581;29;20269;-72
2020/12/04 10:14:14;;;;;;;19.37;13.53;;;;;;;3.68;93.24;98374.78;4864436;29;20568;-71
2020/12/04 10:16:46;;;;;;;21.23;13.73;;;;;;;3.70;92.80;98372.63;4863881;29;20232;-71
2020/12/04 10:19:12;;;;;;;20.33;13.63;;;;;;;3.78;92.80;98366.63;4849875;29;20714;-71
2020/12/04 10:21:40;;;;;;;16.83;12.17;;;;;;;3.77;92.80;98362.31;4876398;29;20741;-71
2020/12/04 10:24:06;;;;;;;19.60;12.77;;;;;;;3.73;92.21;98360.50;4860769;29;20301;-71
2020/12/04 10:26:36;;;;;;;20.77;13.17;;;;;;;3.74;92.51;98368.28;4837935;29;20751;-71
2020/12/04 10:29:02;;;;;;;18.40;12.27;;;;;;;3.82;92.49;98370.31;4830546;29;20240;-71
2020/12/04 10:31:28;;;;;;;19.97;12.37;;;;;;;4.03;92.36;98366.31;4841043;29;20236;-71
2020/12/04 10:33:53;;;;;;;19.37;12.53;;;;;;;4.07;91.99;98365.47;4863631;29;20217;-71
2020/12/04 10:36:19;;;;;;;21.50;12.37;;;;;;;4.06;91.63;98363.06;4863442;29;20240;-71
2020/12/04 10:38:44;;;;;;;20.40;12.37;;;;;;;4.14;91.73;98359.75;4879996;29;20687;-70
2020/12/04 10:41:10;;;;;;;19.33;13.10;;;;;;;4.22;92.01;98355.34;4864081;29;20231;-70
2020/12/04 10:43:38;;;;;;;20.93;11.73;;;;;;;4.35;91.20;98348.47;4864188;29;20184;-71
2020/12/04 10:46:06;;;;;;;18.87;12.47;;;;;;;4.40;91.00;98354.56;4863407;29;20599;-71
2020/12/04 10:48:33;;;;;;;18.30;11.63;;;;;;;4.46;91.14;98353.41;4879781;29;20181;-71
2020/12/04 10:50:59;;;;;;;18.60;12.43;;;;;;;4.57;91.47;98352.19;4860442;29;20233;-71
2020/12/04 10:53:26;;;;;;;17.20;11.10;;;;;;;4.62;91.26;98360.19;4830015;29;20200;-71
2020/12/04 10:55:52;;;;;;;16.97;11.53;;;;;;;4.68;90.81;98349.06;4830006;29;20248;-71
2020/12/04 10:58:18;;;;;;;18.90;12.30;;;;;;;4.83;90.35;98345.34;4845699;29;20644;-71
2020/12/04 11:00:47;;;;;;;15.63;10.77;;;;;;;4.80;90.41;98346.75;4864946;29;20240;-71
2020/12/04 11:05:54;;;;;;;17.43;11.23;;;;;;;4.93;90.21;98345.19;4876629;29;20699;-71
2020/12/04 11:08:26;;;;;;;15.80;11.37;;;;;;;4.89;90.22;98349.56;4845898;29;20189;-71
2020/12/04 11:10:55;;;;;;;17.50;11.23;;;;;;;5.09;89.82;98345.47;4842065;29;20238;-71
2020/12/04 11:13:23;;;;;;;17.27;11.43;;;;;;;5.25;89.77;98344.13;4860809;29;20590;-71
2020/12/04 11:15:49;;;;;;;17.43;11.37;;;;;;;5.29;89.15;98347.03;4865391;29;20232;-71
2020/12/04 11:18:16;;;;;;;15.87;11.10;;;;;;;5.28;89.19;98354.31;4848814;29;20189;-70
2020/12/04 11:20:42;;;;;;;15.87;11.17;;;;;;;5.42;88.60;98355.13;4878040;29;20229;-72
2020/12/04 11:23:10;;;;;;;16.00;10.37;;;;;;;5.31;88.96;98347.53;4848258;29;20177;-71
2020/12/04 11:25:36;;;;;;;15.17;10.20;;;;;;;5.27;88.82;98347.31;4877864;29;20775;-71
2020/12/04 11:28:03;;;;;;;16.37;10.70;;;;;;;5.30;89.13;98362.88;4847881;29;20193;-72
2020/12/04 11:30:32;;;;;;;17.03;10.93;;;;;;;5.33;88.89;98361.47;4848742;29;20236;-71
2020/12/04 11:33:02;;;;;;;15.50;10.43;;;;;;;5.43;88.27;98372.88;4862818;29;20177;-71
2020/12/04 11:35:28;;;;;;;14.83;9.97;;;;;;;5.32;88.75;98374.16;4847999;29;20224;-71